createdAt,value
2023-03-11T00:00:41.013Z,42.40
2023-03-11T00:03:25.184Z,25.70
2023-03-11T00:05:58.893Z,21.60
2023-03-11T00:08:33.329Z,65.20
2023-03-11T00:11:04.038Z,64.80
2023-03-11T00:13:48.352Z,43.40
2023-03-11T00:16:38.833Z,27.20
2023-03-11T00:19:08.212Z,28.60
2023-03-11T00:24:57.890Z,22.60
2023-03-11T00:27:28.734Z,22.30
2023-03-11T00:29:57.565Z,21.50
2023-03-11T00:32:26.636Z,21.20
2023-03-11T00:35:00.663Z,22.90
2023-03-11T00:37:29.937Z,19.70
2023-03-11T00:40:02.363Z,23.20
2023-03-11T00:42:33.743Z,19.30
2023-03-11T00:45:06.806Z,24.20
2023-03-11T00:47:39.065Z,20.70
2023-03-11T00:50:11.601Z,23.30
2023-03-11T00:52:42.691Z,22.70
2023-03-11T00:55:15.639Z,20.50
2023-03-11T00:57:46.431Z,19.20
2023-03-11T01:00:21.257Z,20.80
2023-03-11T01:02:57.751Z,19.90
2023-03-11T01:05:31.352Z,19.90
2023-03-11T01:08:05.399Z,20.30
2023-03-11T01:10:37.064Z,20.70
2023-03-11T01:13:06.577Z,18.80
2023-03-11T01:15:39.233Z,18.50
2023-03-11T01:18:10.303Z,21.90
2023-03-11T01:20:39.490Z,18.80
2023-03-11T01:23:11.220Z,23.40
2023-03-11T01:25:41.444Z,21.40
2023-03-11T01:28:14.298Z,21.20
2023-03-11T01:30:46.248Z,18.90
2023-03-11T01:33:19.907Z,17.80
2023-03-11T01:35:49.701Z,18.30
2023-03-11T01:38:21.331Z,18.10
2023-03-11T01:40:52.878Z,21.30
2023-03-11T01:44:00.953Z,22.00
2023-03-11T01:46:54.190Z,20.90
2023-03-11T01:49:33.298Z,19.30
2023-03-11T01:52:08.250Z,24.30
2023-03-11T01:54:45.446Z,18.80
2023-03-11T01:57:16.332Z,19.60
2023-03-11T01:59:51.341Z,16.60
2023-03-11T02:02:46.075Z,18.00
2023-03-11T02:05:22.594Z,20.70
2023-03-11T02:07:54.474Z,20.30
2023-03-11T02:10:26.122Z,19.70
2023-03-11T02:12:58.066Z,21.20
2023-03-11T02:15:31.240Z,18.10
2023-03-11T02:18:05.660Z,18.30
2023-03-11T02:20:49.664Z,17.80
2023-03-11T02:23:23.785Z,20.70
2023-03-11T02:26:15.624Z,20.50
2023-03-11T02:28:49.901Z,20.00
2023-03-11T02:31:22.376Z,23.50
2023-03-11T02:33:53.707Z,29.70
2023-03-11T02:36:36.340Z,29.40
2023-03-11T02:39:07.233Z,27.60
2023-03-11T02:41:42.427Z,28.40
2023-03-11T02:44:16.242Z,30.00
2023-03-11T02:46:49.271Z,31.30
2023-03-11T02:49:21.280Z,30.10
2023-03-11T02:51:52.674Z,34.80
2023-03-11T02:54:28.414Z,30.60
2023-03-11T02:59:31.520Z,29.50
2023-03-11T03:02:03.327Z,35.60
2023-03-11T03:04:33.550Z,41.70
2023-03-11T03:07:04.359Z,43.20
2023-03-11T03:09:36.729Z,36.10
2023-03-11T03:12:08.320Z,35.40
2023-03-11T03:14:37.754Z,35.00
2023-03-11T03:17:07.184Z,34.80
2023-03-11T03:19:37.146Z,33.90
2023-03-11T03:22:08.394Z,33.80
2023-03-11T03:24:38.534Z,31.30
2023-03-11T03:27:09.930Z,31.90
2023-03-11T03:29:39.938Z,35.00
2023-03-11T03:32:10.770Z,35.10
2023-03-11T03:34:39.793Z,33.00
2023-03-11T03:37:12.403Z,31.10
2023-03-11T03:39:43.256Z,30.40
2023-03-11T03:42:14.277Z,31.80
2023-03-11T03:44:45.625Z,25.10
2023-03-11T03:47:16.884Z,25.00
2023-03-11T03:49:48.560Z,25.10
2023-03-11T03:52:22.161Z,23.80
2023-03-11T03:54:55.176Z,23.60
2023-03-11T03:57:26.586Z,24.40
2023-03-11T03:59:57.010Z,22.60
2023-03-11T04:02:27.225Z,18.90
2023-03-11T04:04:58.885Z,18.00
2023-03-11T04:07:30.531Z,22.00
2023-03-11T04:10:00.833Z,20.70
2023-03-11T04:12:34.209Z,19.70
2023-03-11T04:15:04.840Z,18.20
2023-03-11T04:17:38.961Z,18.30
2023-03-11T04:20:11.203Z,18.70
2023-03-11T04:22:41.714Z,26.90
2023-03-11T04:25:12.220Z,19.80
2023-03-11T04:27:46.302Z,18.20
2023-03-11T04:30:17.404Z,21.00
2023-03-11T04:32:47.433Z,18.90
2023-03-11T04:35:21.679Z,19.40
2023-03-11T04:37:53.357Z,17.40
2023-03-11T04:40:24.728Z,19.70
2023-03-11T04:42:55.286Z,21.40
2023-03-11T04:45:25.726Z,18.10
2023-03-11T04:48:01.725Z,16.00
2023-03-11T04:53:04.181Z,11.40
2023-03-11T04:55:35.162Z,15.60
2023-03-11T04:58:05.500Z,12.90
2023-03-11T05:00:36.930Z,17.70
2023-03-11T05:03:13.404Z,17.50
2023-03-11T05:08:16.290Z,15.30
2023-03-11T05:10:48.770Z,11.90
2023-03-11T05:13:21.412Z,10.90
2023-03-11T05:15:53.394Z,7.50
2023-03-11T05:18:23.248Z,7.90
2023-03-11T05:20:55.039Z,6.60
2023-03-11T05:23:30.462Z,6.70
2023-03-11T05:26:01.101Z,5.00
2023-03-11T05:28:32.443Z,5.70
2023-03-11T05:31:02.954Z,5.20
2023-03-11T05:33:36.127Z,4.20
2023-03-11T05:36:10.746Z,5.00
2023-03-11T05:38:43.309Z,5.30
2023-03-11T05:41:13.993Z,4.00
2023-03-11T05:43:45.106Z,4.10
2023-03-11T05:46:17.053Z,4.30
2023-03-11T05:48:50.278Z,5.30
2023-03-11T05:51:20.153Z,6.20
2023-03-11T05:53:53.060Z,5.30
2023-03-11T05:56:30.045Z,4.50
2023-03-11T05:59:01.271Z,4.50
2023-03-11T06:01:33.226Z,3.70
2023-03-11T06:04:04.132Z,4.00
2023-03-11T06:06:34.688Z,4.70
2023-03-11T06:09:04.759Z,4.70
2023-03-11T06:11:37.196Z,4.00
2023-03-11T06:14:07.881Z,6.10
2023-03-11T06:16:36.989Z,5.10
2023-03-11T06:19:10.026Z,5.90
2023-03-11T06:21:43.229Z,4.70
2023-03-11T06:24:12.767Z,6.20
2023-03-11T06:26:44.650Z,4.70
2023-03-11T06:29:15.900Z,5.00
2023-03-11T06:31:46.723Z,4.60
2023-03-11T06:34:17.588Z,4.40
2023-03-11T06:36:48.938Z,6.10
2023-03-11T06:39:19.827Z,6.90
2023-03-11T06:41:51.158Z,4.10
2023-03-11T06:44:23.189Z,5.10
2023-03-11T06:46:54.437Z,3.50
2023-03-11T06:49:25.177Z,7.90
2023-03-11T06:51:58.626Z,5.70
2023-03-11T06:54:32.632Z,6.50
2023-03-11T06:57:04.175Z,4.80
2023-03-11T06:59:33.681Z,4.90
2023-03-11T07:02:06.642Z,5.60
2023-03-11T07:04:36.910Z,6.50
2023-03-11T07:07:10.842Z,4.20
2023-03-11T07:09:41.266Z,6.80
2023-03-11T07:12:15.128Z,5.20
2023-03-11T07:14:44.754Z,4.30
2023-03-11T07:17:15.743Z,6.00
2023-03-11T07:19:48.488Z,5.80
2023-03-11T07:22:21.421Z,6.50
2023-03-11T07:24:52.133Z,7.00
2023-03-11T07:27:24.110Z,4.20
2023-03-11T07:29:55.286Z,5.70
2023-03-11T07:32:26.619Z,4.00
2023-03-11T07:35:00.030Z,8.20
2023-03-11T07:37:32.251Z,7.50
2023-03-11T07:40:03.988Z,6.40
2023-03-11T07:42:36.527Z,5.80
2023-03-11T07:45:07.174Z,4.70
2023-03-11T07:47:41.789Z,5.40
2023-03-11T07:50:12.524Z,3.40
2023-03-11T07:52:44.346Z,7.40
2023-03-11T07:55:18.028Z,6.10
2023-03-11T07:57:49.570Z,6.80
2023-03-11T08:00:21.285Z,6.70
2023-03-11T08:02:51.681Z,4.10
2023-03-11T08:05:24.509Z,5.50
2023-03-11T08:07:57.568Z,5.60
2023-03-11T08:10:28.053Z,4.10
2023-03-11T08:12:58.643Z,6.60
2023-03-11T08:15:29.556Z,4.30
2023-03-11T08:18:01.611Z,8.70
2023-03-11T08:25:27.522Z,4.60
2023-03-11T08:27:57.951Z,4.20
2023-03-11T08:30:28.589Z,7.50
2023-03-11T08:32:58.160Z,5.50
2023-03-11T08:35:27.550Z,3.80
2023-03-11T08:37:57.203Z,4.80
2023-03-11T08:40:29.921Z,5.00
2023-03-11T08:43:00.172Z,3.80
2023-03-11T08:45:30.052Z,4.80
2023-03-11T08:48:00.514Z,4.60
2023-03-11T08:50:44.190Z,21.30
2023-03-11T08:53:23.221Z,4.60
2023-03-11T08:55:54.253Z,3.70
2023-03-11T08:58:24.934Z,7.40
2023-03-11T09:01:03.420Z,4.60
2023-03-11T09:03:36.615Z,10.00
2023-03-11T09:06:12.646Z,6.80
2023-03-11T09:08:47.142Z,11.40
2023-03-11T09:11:22.448Z,7.40
2023-03-11T09:13:52.326Z,13.20
2023-03-11T09:16:24.167Z,8.90
2023-03-11T09:18:54.857Z,6.40
2023-03-11T09:21:25.096Z,7.50
2023-03-11T09:23:56.399Z,9.60
2023-03-11T09:26:26.914Z,7.10
2023-03-11T09:29:15.411Z,6.30
2023-03-11T09:31:50.308Z,7.60
2023-03-11T09:34:19.641Z,9.50
2023-03-11T09:36:50.285Z,7.70
2023-03-11T09:39:28.903Z,9.80
2023-03-11T09:42:04.303Z,8.50
2023-03-11T09:44:44.573Z,7.30
2023-03-11T09:47:37.243Z,7.30
2023-03-11T09:50:22.828Z,5.20
2023-03-11T09:53:16.201Z,8.20
2023-03-11T09:55:59.581Z,6.50
2023-03-11T09:58:36.991Z,5.70
2023-03-11T10:01:18.824Z,6.90
2023-03-11T10:04:01.151Z,5.90
2023-03-11T10:06:31.791Z,4.30
2023-03-11T10:09:07.897Z,5.00
2023-03-11T10:11:55.541Z,4.00
2023-03-11T10:14:50.125Z,5.20
2023-03-11T10:17:53.498Z,4.30
2023-03-11T10:20:32.444Z,9.10
2023-03-11T10:23:22.906Z,11.10
2023-03-11T10:26:02.625Z,6.50
2023-03-11T10:29:05.275Z,4.90
2023-03-11T10:32:08.229Z,6.80
2023-03-11T10:34:45.333Z,5.20
2023-03-11T10:37:33.229Z,3.90
2023-03-11T10:40:21.000Z,6.50
2023-03-11T10:42:52.918Z,11.10
2023-03-11T10:45:24.109Z,6.70
2023-03-11T10:47:53.968Z,4.80
2023-03-11T10:50:26.093Z,4.80
2023-03-11T10:53:08.902Z,7.30
2023-03-11T10:55:50.832Z,4.00
2023-03-11T10:58:26.385Z,4.40
2023-03-11T11:01:04.401Z,5.00
2023-03-11T11:03:35.119Z,3.60
2023-03-11T11:06:07.955Z,6.90
2023-03-11T11:08:37.345Z,7.10
2023-03-11T11:11:22.111Z,5.70
2023-03-11T11:13:59.500Z,6.10
2023-03-11T11:16:30.417Z,7.90
2023-03-11T11:19:12.603Z,7.80
2023-03-11T11:25:36.212Z,5.40
2023-03-11T11:28:35.114Z,15.40
2023-03-11T11:31:19.902Z,7.50
2023-03-11T11:33:55.669Z,6.20
2023-03-11T11:36:31.122Z,7.80
2023-03-11T11:39:21.268Z,7.40
2023-03-11T11:42:40.663Z,8.30
2023-03-11T11:46:14.886Z,5.00
2023-03-11T11:49:24.792Z,9.90
2023-03-11T12:02:29.250Z,6.20
2023-03-11T12:14:44.813Z,4.70
2023-03-11T12:17:26.455Z,6.40
2023-03-11T12:20:09.021Z,6.20
2023-03-11T12:22:56.803Z,7.20
2023-03-11T12:26:03.880Z,5.40
2023-03-11T12:28:59.309Z,5.00
2023-03-11T12:31:35.562Z,8.30
2023-03-11T12:34:08.599Z,4.60
2023-03-11T12:36:44.142Z,5.10
2023-03-11T12:39:40.406Z,91.20
2023-03-11T12:42:41.175Z,18.30
2023-03-11T12:45:48.042Z,7.30
2023-03-11T12:48:40.594Z,5.90
2023-03-11T12:58:38.667Z,7.80
2023-03-11T13:01:48.296Z,7.70
2023-03-11T13:04:46.187Z,5.10
2023-03-11T13:07:26.245Z,6.20
2023-03-11T13:10:19.255Z,4.30
2023-03-11T13:12:51.521Z,7.00
2023-03-11T13:15:36.589Z,5.90
2023-03-11T13:18:34.086Z,16.80
2023-03-11T13:21:05.486Z,44.70
2023-03-11T13:23:40.897Z,27.20
2023-03-11T13:26:43.600Z,9.50
2023-03-11T13:29:47.474Z,17.40
2023-03-11T13:32:54.216Z,13.60
2023-03-11T13:35:32.444Z,7.20
2023-03-11T13:39:03.882Z,8.90
2023-03-11T13:41:36.766Z,11.10
2023-03-11T13:44:30.888Z,9.60
2023-03-11T13:47:21.776Z,6.60
2023-03-11T13:50:07.427Z,6.60
2023-03-11T13:52:54.118Z,5.20
2023-03-11T13:55:36.633Z,5.40
2023-03-11T13:58:30.801Z,4.90
2023-03-11T14:01:25.498Z,6.20
2023-03-11T14:03:55.030Z,22.30
2023-03-11T14:06:25.395Z,7.90
2023-03-11T14:21:36.478Z,8.40
2023-03-11T14:24:17.179Z,17.60
2023-03-11T14:27:33.298Z,3.60
2023-03-11T14:30:06.248Z,5.40
2023-03-11T14:32:45.509Z,7.70
2023-03-11T14:35:21.480Z,10.10
2023-03-11T14:41:41.073Z,5.90
2023-03-11T14:44:18.935Z,4.50
2023-03-11T14:53:31.136Z,5.00
2023-03-11T14:56:09.392Z,5.20
2023-03-11T14:58:55.683Z,5.90
2023-03-11T15:01:46.692Z,5.40
2023-03-11T15:04:34.468Z,4.50
2023-03-11T15:07:09.639Z,11.10
2023-03-11T15:09:43.684Z,7.00
2023-03-11T15:12:43.105Z,6.30
2023-03-11T15:15:32.262Z,4.10
2023-03-11T15:18:03.781Z,7.10
2023-03-11T15:20:36.598Z,5.40
2023-03-11T15:23:23.711Z,5.00
2023-03-11T15:25:55.240Z,4.20
2023-03-11T15:28:33.314Z,5.70
2023-03-11T15:31:22.729Z,4.40
2023-03-11T15:33:54.319Z,6.60
2023-03-11T15:36:41.048Z,6.40
2023-03-11T15:39:21.946Z,5.40
2023-03-11T15:42:08.053Z,6.90
2023-03-11T15:45:03.456Z,4.90
2023-03-11T15:47:36.437Z,6.50
2023-03-11T15:50:46.934Z,6.00
2023-03-11T15:53:51.726Z,4.90
2023-03-11T15:56:33.561Z,4.40
2023-03-11T15:59:05.613Z,5.60
2023-03-11T16:01:40.999Z,4.60
2023-03-11T16:04:17.129Z,6.70
2023-03-11T16:07:07.144Z,17.10
2023-03-11T16:09:41.636Z,13.80
2023-03-11T16:12:24.401Z,8.00
2023-03-11T16:14:56.809Z,5.60
2023-03-11T16:17:46.685Z,5.60
2023-03-11T16:20:22.112Z,6.20
2023-03-11T16:23:03.414Z,7.00
2023-03-11T16:25:39.786Z,6.20
2023-03-11T16:28:14.229Z,7.10
2023-03-11T16:30:44.501Z,5.90
2023-03-11T16:33:13.999Z,5.80
2023-03-11T16:35:44.075Z,6.10
2023-03-11T16:38:15.086Z,129.40
2023-03-11T16:40:45.033Z,102.80
2023-03-11T16:43:19.718Z,8.40
2023-03-11T16:45:50.123Z,6.80
2023-03-11T16:48:23.060Z,4.10
2023-03-11T16:50:52.744Z,7.40
2023-03-11T16:53:26.163Z,4.80
2023-03-11T16:55:56.998Z,4.80
2023-03-11T16:58:27.275Z,6.00
2023-03-11T17:01:00.604Z,7.40
2023-03-11T17:03:41.878Z,5.50
2023-03-11T17:06:13.210Z,4.00
2023-03-11T17:08:49.835Z,7.60
2023-03-11T17:11:25.431Z,3.90
2023-03-11T17:14:13.645Z,5.40
2023-03-11T17:16:47.579Z,7.90
2023-03-11T17:19:19.912Z,7.60
2023-03-11T17:21:51.472Z,9.70
2023-03-11T17:24:23.808Z,6.80
2023-03-11T17:26:57.533Z,7.20
2023-03-11T17:29:31.877Z,7.20
2023-03-11T17:32:03.166Z,6.00
2023-03-11T17:34:34.657Z,8.20
2023-03-11T17:37:06.271Z,8.10
2023-03-11T17:39:37.368Z,7.00
2023-03-11T17:42:07.989Z,6.30
2023-03-11T17:44:51.126Z,5.70
2023-03-11T17:47:26.510Z,5.20
2023-03-11T17:49:56.707Z,11.00
2023-03-11T17:52:32.716Z,9.80
2023-03-11T17:55:04.402Z,8.10
2023-03-11T17:57:45.026Z,7.80
2023-03-11T18:00:18.437Z,17.30
2023-03-11T18:02:48.177Z,15.70
2023-03-11T18:05:22.030Z,16.20
2023-03-11T18:07:59.425Z,8.60
2023-03-11T18:10:30.525Z,8.60
2023-03-11T18:13:03.804Z,9.90
2023-03-11T18:15:37.655Z,8.80
2023-03-11T18:18:09.145Z,9.40
2023-03-11T18:20:40.634Z,12.90
2023-03-11T18:23:12.264Z,7.00
2023-03-11T18:25:46.276Z,8.80
2023-03-11T18:28:19.314Z,16.60
2023-03-11T18:30:49.103Z,11.60
2023-03-11T18:33:25.516Z,13.90
2023-03-11T18:36:02.065Z,16.00
2023-03-11T18:38:40.226Z,12.20
2023-03-11T18:41:17.355Z,13.20
2023-03-11T18:43:59.997Z,17.30
2023-03-11T18:46:34.393Z,10.60
2023-03-11T18:49:08.164Z,13.80
2023-03-11T18:51:43.074Z,12.40
2023-03-11T18:54:16.404Z,10.50
2023-03-11T18:56:48.556Z,8.60
2023-03-11T18:59:23.453Z,8.40
2023-03-11T19:01:57.720Z,7.00
2023-03-11T19:04:31.384Z,7.60
2023-03-11T19:07:04.645Z,10.70
2023-03-11T19:09:37.396Z,10.20
2023-03-11T19:12:07.603Z,13.40
2023-03-11T19:14:38.879Z,7.40
2023-03-11T19:17:14.652Z,11.40
2023-03-11T19:19:46.220Z,6.50
2023-03-11T19:22:17.963Z,7.30
2023-03-11T19:24:48.114Z,10.20
2023-03-11T19:27:19.327Z,7.70
2023-03-11T19:29:49.984Z,9.70
2023-03-11T19:32:24.286Z,12.00
2023-03-11T19:34:58.576Z,9.20
2023-03-11T19:37:30.768Z,10.10
2023-03-11T19:40:02.344Z,8.30
2023-03-11T19:42:35.110Z,10.80
2023-03-11T19:45:09.771Z,11.60
2023-03-11T19:47:47.361Z,10.20
2023-03-11T19:50:40.607Z,9.90
2023-03-11T19:55:48.912Z,7.90
2023-03-11T19:58:22.431Z,7.70
2023-03-11T20:00:54.307Z,9.50
2023-03-11T20:03:27.311Z,9.40
2023-03-11T20:06:00.464Z,9.20
2023-03-11T20:08:37.394Z,9.30
2023-03-11T20:11:11.142Z,8.70
2023-03-11T20:13:45.708Z,8.00
2023-03-11T20:18:51.163Z,10.40
2023-03-11T20:21:24.533Z,9.50
2023-03-11T20:23:57.532Z,9.50
2023-03-11T20:26:31.195Z,8.20
2023-03-11T20:29:02.508Z,8.30
2023-03-11T20:31:41.562Z,13.30
2023-03-11T20:34:13.391Z,9.30
2023-03-11T20:36:47.927Z,8.40
2023-03-11T20:39:19.722Z,7.90
2023-03-11T20:41:51.103Z,6.30
2023-03-11T20:44:23.224Z,8.80
2023-03-11T20:46:57.617Z,8.80
2023-03-11T20:49:29.782Z,8.10
2023-03-11T20:52:02.183Z,6.60
2023-03-11T20:54:34.322Z,9.80
2023-03-11T20:57:06.501Z,11.30
2023-03-11T20:59:38.273Z,11.90
2023-03-11T21:02:11.855Z,9.90
2023-03-11T21:04:48.936Z,12.90
2023-03-11T21:07:20.980Z,9.50
2023-03-11T21:09:56.332Z,8.80
2023-03-11T21:12:31.306Z,6.90
2023-03-11T21:15:03.067Z,7.20
2023-03-11T21:17:35.584Z,9.20
2023-03-11T21:20:10.142Z,10.10
2023-03-11T21:22:40.612Z,8.30
2023-03-11T21:25:10.343Z,8.00
2023-03-11T21:27:40.424Z,8.20
2023-03-11T21:30:13.608Z,18.10
2023-03-11T21:32:43.970Z,7.20
2023-03-11T21:35:18.225Z,10.60
2023-03-11T21:37:48.736Z,11.00
2023-03-11T21:40:20.262Z,9.20
2023-03-11T21:42:51.942Z,9.50
2023-03-11T21:45:25.813Z,11.20
2023-03-11T21:47:59.170Z,14.00
2023-03-11T21:50:29.839Z,9.30
2023-03-11T21:53:00.680Z,17.20
2023-03-11T21:55:35.315Z,15.40
2023-03-11T21:58:09.407Z,14.40
2023-03-11T22:00:39.308Z,17.90
2023-03-11T22:03:09.965Z,25.30
2023-03-11T22:05:40.758Z,26.90
2023-03-11T22:08:16.025Z,13.70
2023-03-11T22:10:48.529Z,18.40
2023-03-11T22:13:19.354Z,12.90
2023-03-11T22:15:50.390Z,27.10
2023-03-11T22:18:21.606Z,15.00
2023-03-11T22:20:52.374Z,19.90
2023-03-11T22:23:22.549Z,12.00
2023-03-11T22:25:53.639Z,8.20
2023-03-11T22:28:24.313Z,11.00
2023-03-11T22:30:56.114Z,7.90
2023-03-11T22:33:26.914Z,9.90
2023-03-11T22:35:57.902Z,9.70
2023-03-11T22:38:28.187Z,8.40
2023-03-11T22:41:00.668Z,9.30
2023-03-11T22:43:29.824Z,10.70
2023-03-11T22:46:02.220Z,7.40
2023-03-11T22:48:33.354Z,7.70
2023-03-11T22:51:05.447Z,8.60
2023-03-11T22:53:38.041Z,11.30
2023-03-11T22:56:10.394Z,7.90
2023-03-11T23:01:11.929Z,9.50
2023-03-11T23:03:43.780Z,8.10
2023-03-11T23:06:19.196Z,7.10
2023-03-11T23:08:50.629Z,7.90
2023-03-11T23:11:23.680Z,7.90
2023-03-11T23:13:54.220Z,8.20
2023-03-11T23:16:27.307Z,9.00
2023-03-11T23:18:57.345Z,11.80
2023-03-11T23:21:32.535Z,11.70
2023-03-11T23:24:05.388Z,6.70
2023-03-11T23:26:35.865Z,8.70
2023-03-11T23:29:07.536Z,12.90
2023-03-11T23:31:38.665Z,10.60
2023-03-11T23:34:09.990Z,11.50
2023-03-11T23:36:40.003Z,11.20
2023-03-11T23:39:11.470Z,8.50
2023-03-11T23:41:41.746Z,14.60
2023-03-11T23:44:11.806Z,9.20
2023-03-11T23:46:44.472Z,8.80
2023-03-11T23:49:16.011Z,8.90
2023-03-11T23:51:45.100Z,8.20
2023-03-11T23:54:17.591Z,11.10
2023-03-11T23:56:47.775Z,9.30
2023-03-11T23:59:17.978Z,9.30
